Humidity-temperature Sensor

Selected Measurement Type: Relative Humidity

 
Relative Humidity [%]     6 entries per hour
Showing data from 3/25/2016 (00:00:00 Z) to 3/22/2016 (00:01:00 Z)
Previous Next [ Day | 3-Days | 7-Days ]
First Last
Prev [ Day | 3-Days | 7-Days ] Next
First Last

Start Time:     :
End Time:     :     
Time (in GMT) :00 :50 :40 :30 :20 :10
Previous Next [ Day | 3-Days | 7-Days ]
First Last
Prev [ Day | 3-Days | 7-Days ] Next
First Last


123 => good data
MM => data is determined as missing
-- => data not received/configured
Back to Top Back to Top
3/25/2016 00:00 to 23:10 82.04 82.14 81.60 80.94 81.87 82.22
3/24/2016 23:00 to 22:10 81.08 81.66 81.73 81.27 82.04 81.56
3/24/2016 22:00 to 21:10 82.52 83.64 82.49 81.52 83.41 83.82
3/24/2016 21:00 to 20:10 83.18 83.03 84.30 84.92 84.32 82.83
3/24/2016 20:00 to 19:10 83.18 81.00 84.65 87.54 87.60 86.05
3/24/2016 19:00 to 18:10 84.14 84.34 85.34 86.00 85.55 85.67
3/24/2016 18:00 to 17:10 85.42 86.02 87.06 87.19 87.08 87.33
3/24/2016 17:00 to 16:10 87.08 86.50 86.73 86.40 86.09 86.13
3/24/2016 16:00 to 15:10 86.50 86.40 86.05 85.84 87.19 86.96
3/24/2016 15:00 to 14:10 86.90 87.23 87.46 87.15 86.92 87.48
3/24/2016 14:00 to 13:10 88.02 88.23 87.62 87.42 87.27 87.87
3/24/2016 13:00 to 12:10 87.98 88.87 89.04 88.87 88.47 89.14
3/24/2016 12:00 to 11:10 88.66 87.46 88.00 88.89 87.77 87.89
3/24/2016 11:00 to 10:10 88.21 88.16 88.83 88.83 89.14 88.68
3/24/2016 10:00 to 9:10 89.33 89.29 88.16 87.52 89.18 89.29
3/24/2016 09:00 to 8:10 89.12 89.12 89.14 89.26 89.49 88.68
3/24/2016 08:00 to 7:10 88.60 87.83 87.66 87.87 87.64 87.62
3/24/2016 07:00 to 6:10 87.60 87.17 88.02 88.43 88.27 87.67
3/24/2016 06:00 to 5:10 88.47 89.04 88.37 88.39 88.50 88.00
3/24/2016 05:00 to 4:10 87.94 87.69 86.75 88.66 87.94 89.02
3/24/2016 04:00 to 3:10 87.69 88.89 89.43 89.68 88.81 88.39
3/24/2016 03:00 to 2:10 89.10 88.99 88.77 88.00 86.83 86.48
3/24/2016 02:00 to 1:10 86.48 87.96 86.34 86.61 87.15 87.33
3/24/2016 01:00 to 0:10 87.54 85.94 87.25 85.94 86.15 86.27
3/24/2016 00:00 to 23:10 86.73 86.07 85.57 86.65 84.36 85.51
3/23/2016 23:00 to 22:10 85.51 85.13 83.60 84.53 84.36 83.95
3/23/2016 22:00 to 21:10 84.41 83.91 85.09 85.53 86.32 86.83
3/23/2016 21:00 to 20:10 85.94 85.07 86.48 85.13 85.50 87.04
3/23/2016 20:00 to 19:10 86.21 87.17 86.73 87.19 87.87 86.00
3/23/2016 19:00 to 18:10 86.67 87.35 87.02 86.09 86.73 85.57
3/23/2016 18:00 to 17:10 85.84 87.35 87.67 87.25 88.14 87.21
3/23/2016 17:00 to 16:10 88.58 86.83 87.77 87.17 87.73 87.69
3/23/2016 16:00 to 15:10 88.18 89.02 88.60 89.26 87.58 87.19
3/23/2016 15:00 to 14:10 87.33 86.96 86.98 87.04 87.25 86.77
3/23/2016 14:00 to 13:10 87.46 87.89 87.71 88.33 87.81 87.83
3/23/2016 13:00 to 12:10 87.79 88.10 87.62 87.75 87.37 87.44
3/23/2016 12:00 to 11:10 87.73 88.43 87.42 88.16 87.67 87.85
3/23/2016 11:00 to 10:10 87.54 88.37 87.66 87.75 87.42 87.31
3/23/2016 10:00 to 9:10 87.79 87.73 87.52 86.96 87.19 87.35
3/23/2016 09:00 to 8:10 86.92 86.67 87.04 86.67 86.27 85.28
3/23/2016 08:00 to 7:10 85.98 85.15 85.59 84.70 85.24 85.01
3/23/2016 07:00 to 6:10 84.47 84.55 84.34 84.55 84.28 84.57
3/23/2016 06:00 to 5:10 84.24 84.32 84.05 82.99 82.33 82.78
3/23/2016 05:00 to 4:10 82.68 82.18 81.85 82.47 82.45 82.76
3/23/2016 04:00 to 3:10 82.31 83.12 82.72 82.54 82.04 82.37
3/23/2016 03:00 to 2:10 81.64 81.23 82.45 82.16 82.14 80.98
3/23/2016 02:00 to 1:10 82.79 81.91 80.38 81.52 80.83 80.81
3/23/2016 01:00 to 0:10 81.21 80.96 81.37 80.81 80.69 80.75
3/23/2016 00:00 to 23:10 80.46 79.59 79.34 76.99 77.63 77.93
3/22/2016 23:00 to 22:10 78.63 79.38 79.05 79.65 80.35 79.79
3/22/2016 22:00 to 21:10 79.88 80.25 79.46 79.59 79.92 81.19
3/22/2016 21:00 to 20:10 80.83 79.38 81.95 80.50 81.81 81.16
3/22/2016 20:00 to 19:10 81.62 83.16 83.22 83.59 83.68 83.32
3/22/2016 19:00 to 18:10 84.03 84.72 84.76 84.65 84.05 84.36
3/22/2016 18:00 to 17:10 84.49 83.91 83.84 83.41 83.22 82.83
3/22/2016 17:00 to 16:10 82.31 81.98 81.60 81.91 81.85 81.25
3/22/2016 16:00 to 15:10 81.00 82.87 82.06 81.54 81.44 81.91
3/22/2016 15:00 to 14:10 81.14 81.81 82.79 82.93 83.28 82.99
3/22/2016 14:00 to 13:10 84.18 83.16 83.41 84.38 86.19 85.07
3/22/2016 13:00 to 12:10 86.46 84.82 84.97 84.74 84.82 84.69
3/22/2016 12:00 to 11:10 85.96 85.01 85.21 86.58 85.77 86.46
3/22/2016 11:00 to 10:10 85.92 84.55 83.74 86.25 86.63 85.67
3/22/2016 10:00 to 9:10 85.59 85.24 86.54 86.94 87.73 88.18
3/22/2016 09:00 to 8:10 88.99 89.04 88.66 89.33 88.31 88.64
3/22/2016 08:00 to 7:10 87.10 88.00 87.35 87.94 89.10 88.06
3/22/2016 07:00 to 6:10 89.16 89.82 90.03 88.81 88.43 87.81
3/22/2016 06:00 to 5:10 87.02 84.74 85.03 85.19 85.69 86.88
3/22/2016 05:00 to 4:10 87.56 88.16 88.14 89.26 88.50 87.91
3/22/2016 04:00 to 3:10 88.14 88.93 89.68 89.49 88.89 88.79
3/22/2016 03:00 to 2:10 88.91 88.77 87.50 76.68 77.39 75.85
3/22/2016 02:00 to 1:10 75.02 77.78 77.82 78.03 78.69 78.38
3/22/2016 01:00 to 0:10 77.76 78.53 77.07 76.66 75.72 74.13